createdAt,value
2022-10-02T00:02:29.389Z,100413.76
2022-10-02T00:05:00.431Z,100407.15
2022-10-02T00:07:35.493Z,100414.08
2022-10-02T00:10:11.744Z,100411.30
2022-10-02T00:12:40.109Z,100409.58
2022-10-02T00:15:17.400Z,100400.52
2022-10-02T00:17:48.850Z,100406.00
2022-10-02T00:20:19.249Z,100388.34
2022-10-02T00:22:57.179Z,100368.94
2022-10-02T00:26:09.593Z,100400.58
2022-10-02T00:29:06.478Z,100406.98
2022-10-02T00:31:41.849Z,100392.60
2022-10-02T00:34:14.348Z,100339.88
2022-10-02T00:37:11.206Z,100303.25
2022-10-02T00:39:57.300Z,100302.86
2022-10-02T00:42:46.374Z,100305.51
2022-10-02T00:45:26.437Z,100293.17
2022-10-02T00:48:11.896Z,100286.87
2022-10-02T00:50:49.292Z,100265.34
2022-10-02T00:53:35.280Z,100251.74
2022-10-02T00:56:05.810Z,100258.13
2022-10-02T00:58:49.243Z,100239.88
2022-10-02T01:01:24.733Z,100221.38
2022-10-02T01:03:54.747Z,100218.53
2022-10-02T01:06:28.312Z,100224.59
2022-10-02T01:08:56.793Z,100232.26
2022-10-02T01:11:27.381Z,100241.45
2022-10-02T01:13:55.637Z,100241.16
2022-10-02T01:16:24.216Z,100236.09
2022-10-02T01:18:52.869Z,100237.18
2022-10-02T01:21:43.570Z,100231.29
2022-10-02T01:24:30.487Z,100229.80
2022-10-02T01:26:59.206Z,100225.41
2022-10-02T01:29:27.449Z,100211.89
2022-10-02T01:31:57.076Z,100198.45
2022-10-02T01:34:25.463Z,100195.30
2022-10-02T01:36:53.918Z,100188.29
2022-10-02T01:39:23.115Z,100179.14
2022-10-02T01:41:51.394Z,100166.48
2022-10-02T01:44:19.566Z,100163.20
2022-10-02T01:46:54.139Z,100184.24
2022-10-02T01:49:41.005Z,100184.52
2022-10-02T01:52:32.422Z,100180.90
2022-10-02T01:55:08.997Z,100177.95
2022-10-02T01:57:49.047Z,100181.23
2022-10-02T02:00:22.702Z,100172.80
2022-10-02T02:03:10.282Z,100171.29
2022-10-02T02:05:53.337Z,100166.83
2022-10-02T02:08:30.762Z,100174.58
2022-10-02T02:11:25.392Z,100179.61
2022-10-02T02:14:17.168Z,100172.26
2022-10-02T02:16:50.828Z,100174.00
2022-10-02T02:19:19.097Z,100175.10
2022-10-02T02:21:53.561Z,100173.05
2022-10-02T02:25:08.403Z,100175.54
2022-10-02T02:27:41.278Z,100174.27
2022-10-02T02:30:13.099Z,100175.70
2022-10-02T02:32:50.504Z,100165.02
2022-10-02T02:35:22.705Z,100165.41
2022-10-02T02:37:54.152Z,100161.48
2022-10-02T02:40:28.812Z,100163.06
2022-10-02T02:43:05.245Z,100162.07
2022-10-02T02:45:38.669Z,100158.56
2022-10-02T02:48:12.743Z,100154.54
2022-10-02T02:50:45.533Z,100159.98
2022-10-02T02:53:18.828Z,100172.10
2022-10-02T02:55:52.843Z,100162.31
2022-10-02T02:58:21.015Z,100148.96
2022-10-02T03:00:49.730Z,100142.35
2022-10-02T03:03:18.405Z,100136.27
2022-10-02T03:05:53.857Z,100125.28
2022-10-02T03:08:31.887Z,100126.40
2022-10-02T03:11:29.401Z,100120.13
2022-10-02T03:14:31.276Z,100118.41
2022-10-02T03:17:21.050Z,100127.09
2022-10-02T03:20:00.998Z,100128.36
2022-10-02T03:22:50.779Z,100132.73
2022-10-02T03:25:32.166Z,100131.13
2022-10-02T03:28:06.195Z,100129.95
2022-10-02T03:30:36.091Z,100125.07
2022-10-02T03:33:05.903Z,100124.15
2022-10-02T03:35:34.488Z,100131.48
2022-10-02T03:38:05.739Z,100133.92
2022-10-02T03:40:34.758Z,100129.70
2022-10-02T03:43:02.901Z,100127.79
2022-10-02T03:48:19.835Z,100129.99
2022-10-02T03:50:48.248Z,100131.42
2022-10-02T03:53:19.324Z,100134.24
2022-10-02T03:56:12.312Z,100142.15
2022-10-02T03:58:45.990Z,100140.39
2022-10-02T04:01:31.949Z,100133.55
2022-10-02T04:04:18.003Z,100129.92
2022-10-02T04:06:52.443Z,100125.61
2022-10-02T04:09:30.812Z,100119.86
2022-10-02T04:12:13.557Z,100109.33
2022-10-02T04:14:51.557Z,100116.59
2022-10-02T04:17:24.558Z,100125.02
2022-10-02T04:19:59.937Z,100125.68
2022-10-02T04:22:39.696Z,100120.36
2022-10-02T04:25:17.640Z,100116.79
2022-10-02T04:27:53.229Z,100116.42
2022-10-02T04:30:22.183Z,100115.10
2022-10-02T04:32:51.377Z,100123.11
2022-10-02T04:36:21.199Z,100131.47
2022-10-02T04:39:14.462Z,100138.90
2022-10-02T04:42:07.213Z,100134.01
2022-10-02T04:44:44.553Z,100135.81
2022-10-02T04:47:43.463Z,100133.16
2022-10-02T04:50:35.530Z,100133.90
2022-10-02T04:53:12.668Z,100143.52
2022-10-02T04:55:55.639Z,100129.85
2022-10-02T04:58:26.473Z,100132.86
2022-10-02T05:01:13.560Z,100139.36
2022-10-02T05:03:59.668Z,100159.27
2022-10-02T05:06:57.970Z,100172.42
2022-10-02T05:09:33.811Z,100178.11
2022-10-02T05:12:07.939Z,100181.52
2022-10-02T05:15:23.422Z,100194.74
2022-10-02T05:17:57.434Z,100189.48
2022-10-02T05:20:25.570Z,100191.81
2022-10-02T05:23:19.895Z,100195.99
2022-10-02T05:25:56.876Z,100190.27
2022-10-02T05:28:43.480Z,100188.96
2022-10-02T05:31:39.030Z,100193.27
2022-10-02T05:34:31.954Z,100195.09
2022-10-02T05:37:18.472Z,100194.23
2022-10-02T05:39:58.341Z,100200.73
2022-10-02T05:42:40.035Z,100202.73
2022-10-02T05:45:27.007Z,100212.75
2022-10-02T05:48:04.189Z,100219.20
2022-10-02T05:50:35.345Z,100223.30
2022-10-02T05:53:19.502Z,100224.16
2022-10-02T05:55:55.510Z,100225.40
2022-10-02T05:59:13.083Z,100227.09
2022-10-02T06:01:46.521Z,100225.83
2022-10-02T06:04:35.188Z,100226.20
2022-10-02T06:07:08.842Z,100219.11
2022-10-02T06:09:49.774Z,100214.69
2022-10-02T06:12:26.781Z,100209.21
2022-10-02T06:15:05.313Z,100201.19
2022-10-02T06:17:51.303Z,100192.96
2022-10-02T06:20:41.599Z,100198.90
2022-10-02T06:23:20.741Z,100203.85
2022-10-02T06:26:01.950Z,100200.91
2022-10-02T06:28:37.368Z,100196.88
2022-10-02T06:31:12.229Z,100200.61
2022-10-02T06:33:40.464Z,100200.64
2022-10-02T06:36:21.786Z,100209.17
2022-10-02T06:39:22.209Z,100211.04
2022-10-02T06:42:28.141Z,100207.08
2022-10-02T06:45:09.213Z,100221.11
2022-10-02T06:47:53.979Z,100228.19
2022-10-02T06:50:31.162Z,100230.46
2022-10-02T06:53:20.637Z,100239.14
2022-10-02T06:56:03.864Z,100244.22
2022-10-02T06:58:40.744Z,100248.94
2022-10-02T07:01:48.191Z,100253.11
2022-10-02T07:04:25.488Z,100256.55
2022-10-02T07:07:21.453Z,100259.61
2022-10-02T07:10:09.800Z,100267.29
2022-10-02T07:12:51.800Z,100269.07
2022-10-02T07:15:38.516Z,100273.87
2022-10-02T07:18:21.543Z,100274.58
2022-10-02T07:21:05.271Z,100279.67
2022-10-02T07:23:50.957Z,100288.61
2022-10-02T07:26:48.519Z,100300.96
2022-10-02T07:29:27.958Z,100305.40
2022-10-02T07:32:14.690Z,100298.32
2022-10-02T07:35:20.019Z,100306.61
2022-10-02T07:38:16.658Z,100308.26
2022-10-02T07:40:51.119Z,100307.27
2022-10-02T07:43:35.637Z,100307.27
2022-10-02T07:46:21.938Z,100308.26
2022-10-02T07:49:11.206Z,100311.64
2022-10-02T07:52:02.749Z,100314.48
2022-10-02T07:55:24.972Z,100316.50
2022-10-02T07:58:06.251Z,100320.92
2022-10-02T08:01:03.300Z,100321.75
2022-10-02T08:03:45.920Z,100324.77
2022-10-02T08:06:15.009Z,100331.38
2022-10-02T08:08:46.053Z,100332.44
2022-10-02T08:11:49.164Z,100332.60
2022-10-02T08:14:22.541Z,100334.09
2022-10-02T08:16:55.369Z,100333.98
2022-10-02T08:19:40.702Z,100337.40
2022-10-02T08:22:30.179Z,100343.40
2022-10-02T08:25:04.774Z,100338.27
2022-10-02T08:27:46.788Z,100342.10
2022-10-02T08:30:15.999Z,100343.77
2022-10-02T08:32:44.382Z,100342.68
2022-10-02T08:35:14.953Z,100349.31
2022-10-02T08:38:01.983Z,100356.27
2022-10-02T08:40:33.465Z,100354.48
2022-10-02T08:43:19.984Z,100356.58
2022-10-02T08:46:14.401Z,100362.95
2022-10-02T08:49:06.846Z,100367.35
2022-10-02T08:52:02.853Z,100366.77
2022-10-02T08:54:51.192Z,100369.15
2022-10-02T08:57:38.105Z,100372.55
2022-10-02T09:00:26.148Z,100377.05
2022-10-02T09:03:25.043Z,100377.34
2022-10-02T09:06:14.210Z,100398.21
2022-10-02T09:08:51.614Z,100401.80
2022-10-02T09:11:29.299Z,100407.10
2022-10-02T09:14:10.719Z,100411.27
2022-10-02T09:17:02.920Z,100408.48
2022-10-02T09:19:45.944Z,100410.65
2022-10-02T09:22:53.237Z,100415.58
2022-10-02T09:25:42.504Z,100417.77
2022-10-02T09:28:18.428Z,100422.64
2022-10-02T09:31:15.280Z,100430.99
2022-10-02T09:34:06.832Z,100433.20
2022-10-02T09:36:46.284Z,100432.52
2022-10-02T09:39:27.142Z,100435.13
2022-10-02T09:42:15.294Z,100438.73
2022-10-02T09:44:46.532Z,100438.20
2022-10-02T09:47:26.686Z,100442.64
2022-10-02T09:50:39.711Z,100443.84
2022-10-02T09:53:19.559Z,100443.82
2022-10-02T09:55:51.523Z,100444.38
2022-10-02T09:58:28.607Z,100444.10
2022-10-02T10:01:17.735Z,100444.66
2022-10-02T10:04:08.605Z,100440.30
2022-10-02T10:07:06.449Z,100433.64
2022-10-02T10:10:00.465Z,100438.91
2022-10-02T10:12:49.654Z,100436.17
2022-10-02T10:15:30.059Z,100435.85
2022-10-02T10:18:13.310Z,100441.54
2022-10-02T10:21:05.531Z,100448.56
2022-10-02T10:23:48.415Z,100450.41
2022-10-02T10:26:43.451Z,100447.28
2022-10-02T10:29:32.220Z,100441.42
2022-10-02T10:32:39.042Z,100447.97
2022-10-02T10:35:31.532Z,100444.87
2022-10-02T10:38:24.182Z,100449.09
2022-10-02T10:41:11.813Z,100446.56
2022-10-02T10:43:58.726Z,100448.84
2022-10-02T10:46:26.800Z,100446.00
2022-10-02T10:49:43.808Z,100446.59
2022-10-02T10:52:34.827Z,100451.30
2022-10-02T10:55:19.888Z,100444.84
2022-10-02T10:57:56.691Z,100451.93
2022-10-02T11:01:07.626Z,100445.45
2022-10-02T11:04:10.853Z,100444.85
2022-10-02T11:06:46.269Z,100445.27
2022-10-02T11:09:29.726Z,100441.88
2022-10-02T11:12:23.192Z,100442.88
2022-10-02T11:15:00.088Z,100436.71
2022-10-02T11:17:35.151Z,100422.45
2022-10-02T11:20:32.470Z,100423.66
2022-10-02T11:23:28.291Z,100421.48
2022-10-02T11:26:02.305Z,100429.86
2022-10-02T11:29:00.528Z,100435.35
2022-10-02T11:31:51.549Z,100436.67
2022-10-02T11:34:46.926Z,100434.64
2022-10-02T11:37:49.688Z,100435.70
2022-10-02T11:40:32.111Z,100441.89
2022-10-02T11:43:18.602Z,100450.43
2022-10-02T11:46:17.979Z,100447.94
2022-10-02T11:49:00.741Z,100445.58
2022-10-02T11:51:38.121Z,100450.71
2022-10-02T11:54:16.129Z,100452.05
2022-10-02T11:57:09.283Z,100457.90
2022-10-02T12:00:06.947Z,100461.52
2022-10-02T12:02:46.056Z,100461.71
2022-10-02T12:05:38.625Z,100457.49
2022-10-02T12:08:29.943Z,100454.73
2022-10-02T12:11:26.083Z,100460.30
2022-10-02T12:14:04.692Z,100463.74
2022-10-02T12:16:35.605Z,100463.15
2022-10-02T12:19:06.979Z,100464.04
2022-10-02T12:22:07.818Z,100461.48
2022-10-02T12:25:15.538Z,100467.71
2022-10-02T12:27:43.696Z,100452.63
2022-10-02T12:30:50.268Z,100457.25
2022-10-02T12:33:39.284Z,100467.61
2022-10-02T12:36:19.387Z,100470.71
2022-10-02T12:39:22.012Z,100478.77
2022-10-02T12:41:53.226Z,100480.43
2022-10-02T12:44:45.148Z,100480.73
2022-10-02T12:47:22.437Z,100480.52
2022-10-02T12:50:04.126Z,100483.51
2022-10-02T12:53:07.632Z,100478.91
2022-10-02T12:55:57.327Z,100483.02
2022-10-02T12:58:40.743Z,100477.67
2022-10-02T13:01:22.259Z,100486.48
2022-10-02T13:03:59.106Z,100490.52
2022-10-02T13:07:13.990Z,100501.08
2022-10-02T13:09:51.165Z,100502.30
2022-10-02T13:12:56.308Z,100505.27
2022-10-02T13:15:39.149Z,100502.52
2022-10-02T13:18:29.825Z,100496.19
2022-10-02T13:21:10.185Z,100493.59
2022-10-02T13:23:44.913Z,100485.76
2022-10-02T13:26:31.213Z,100485.02
2022-10-02T13:29:11.570Z,100495.33
2022-10-02T13:32:25.007Z,100497.19
2022-10-02T13:35:33.018Z,100503.48
2022-10-02T13:38:17.576Z,100499.09
2022-10-02T13:40:51.689Z,100495.89
2022-10-02T13:43:42.610Z,100503.40
2022-10-02T13:46:29.919Z,100492.40
2022-10-02T13:49:48.991Z,100495.79
2022-10-02T13:52:44.607Z,100495.39
2022-10-02T13:55:26.047Z,100509.86
2022-10-02T13:58:03.995Z,100518.69
2022-10-02T14:00:38.109Z,100521.84
2022-10-02T14:03:24.424Z,100517.98
2022-10-02T14:06:20.438Z,100521.46
2022-10-02T14:08:54.241Z,100521.23
2022-10-02T14:11:30.154Z,100523.01
2022-10-02T14:14:07.293Z,100524.97
2022-10-02T14:17:00.214Z,100526.26
2022-10-02T14:19:53.203Z,100531.23
2022-10-02T14:22:30.486Z,100534.24
2022-10-02T14:25:01.443Z,100530.83
2022-10-02T14:28:04.127Z,100525.23
2022-10-02T14:30:58.238Z,100530.23
2022-10-02T14:33:32.507Z,100532.40
2022-10-02T14:36:18.499Z,100532.63
2022-10-02T14:39:28.045Z,100533.79
2022-10-02T14:42:13.775Z,100535.83
2022-10-02T14:45:00.865Z,100531.05
2022-10-02T14:48:05.383Z,100529.79
2022-10-02T14:50:47.170Z,100534.70
2022-10-02T14:53:30.192Z,100533.98
2022-10-02T14:56:36.359Z,100533.72
2022-10-02T14:59:39.043Z,100531.30
2022-10-02T15:02:09.984Z,100536.48
2022-10-02T15:05:04.935Z,100537.19
2022-10-02T15:07:35.316Z,100534.41
2022-10-02T15:10:28.879Z,100538.51
2022-10-02T15:13:11.089Z,100540.88
2022-10-02T15:15:45.532Z,100544.71
2022-10-02T15:18:24.477Z,100545.01
2022-10-02T15:21:01.033Z,100551.17
2022-10-02T15:23:43.615Z,100556.34
2022-10-02T15:26:12.309Z,100556.48
2022-10-02T15:29:02.497Z,100561.83
2022-10-02T15:32:05.045Z,100565.45
2022-10-02T15:34:46.773Z,100567.69
2022-10-02T15:37:30.924Z,100570.05
2022-10-02T15:40:17.222Z,100581.31
2022-10-02T15:42:58.664Z,100587.34
2022-10-02T15:45:31.428Z,100593.34
2022-10-02T15:48:10.425Z,100598.98
2022-10-02T15:50:57.324Z,100605.33
2022-10-02T15:53:31.275Z,100609.23
2022-10-02T15:56:25.007Z,100614.97
2022-10-02T15:59:13.151Z,100618.02
2022-10-02T16:01:59.345Z,100626.92
2022-10-02T16:04:47.185Z,100631.08
2022-10-02T16:07:36.518Z,100629.85
2022-10-02T16:10:18.142Z,100631.02
2022-10-02T16:13:07.519Z,100628.62
2022-10-02T16:16:10.842Z,100630.23
2022-10-02T16:18:59.571Z,100636.27
2022-10-02T16:21:59.797Z,100639.66
2022-10-02T16:24:27.970Z,100643.19
2022-10-02T16:27:21.441Z,100647.16
2022-10-02T16:30:08.767Z,100646.41
2022-10-02T16:33:14.107Z,100649.74
2022-10-02T16:35:59.999Z,100651.28
2022-10-02T16:38:48.470Z,100652.01
2022-10-02T16:41:28.605Z,100656.02
2022-10-02T16:43:59.136Z,100655.21
2022-10-02T16:46:44.595Z,100656.80
2022-10-02T16:49:33.086Z,100661.08
2022-10-02T16:52:34.358Z,100662.92
2022-10-02T16:55:34.540Z,100664.96
2022-10-02T16:58:20.748Z,100670.20
2022-10-02T17:00:53.859Z,100672.75
2022-10-02T17:03:29.323Z,100677.70
2022-10-02T17:06:27.060Z,100676.97
2022-10-02T17:09:15.092Z,100681.58
2022-10-02T17:12:04.233Z,100682.50
2022-10-02T17:14:47.703Z,100682.41
2022-10-02T17:17:43.095Z,100681.05
2022-10-02T17:20:20.075Z,100677.58
2022-10-02T17:23:03.941Z,100678.95
2022-10-02T17:25:42.954Z,100685.71
2022-10-02T17:28:23.457Z,100693.17
2022-10-02T17:31:08.241Z,100688.65
2022-10-02T17:33:57.854Z,100687.77
2022-10-02T17:36:39.240Z,100692.12
2022-10-02T17:39:48.987Z,100692.90
2022-10-02T17:42:41.480Z,100697.46
2022-10-02T17:45:18.842Z,100697.58
2022-10-02T17:48:10.444Z,100699.00
2022-10-02T17:50:53.711Z,100705.14
2022-10-02T17:53:59.122Z,100709.29
2022-10-02T17:56:42.456Z,100711.38
2022-10-02T17:59:26.598Z,100711.36
2022-10-02T18:02:44.233Z,100714.45
2022-10-02T18:05:44.356Z,100717.63
2022-10-02T18:08:21.655Z,100715.91
2022-10-02T18:11:26.794Z,100709.29
2022-10-02T18:14:04.074Z,100704.37
2022-10-02T18:17:01.537Z,100700.50
2022-10-02T18:19:55.923Z,100698.95
2022-10-02T18:22:43.454Z,100698.20
2022-10-02T18:25:33.543Z,100696.64
2022-10-02T18:28:04.717Z,100698.70
2022-10-02T18:31:03.423Z,100701.35
2022-10-02T18:33:37.699Z,100699.83
2022-10-02T18:36:28.809Z,100703.14
2022-10-02T18:39:20.202Z,100709.12
2022-10-02T18:42:22.502Z,100707.38
2022-10-02T18:45:27.934Z,100705.37
2022-10-02T18:48:20.037Z,100709.96
2022-10-02T18:51:09.572Z,100711.64
2022-10-02T18:54:12.040Z,100716.17
2022-10-02T18:57:07.970Z,100719.86
2022-10-02T18:59:45.458Z,100722.67
2022-10-02T19:02:22.500Z,100722.14
2022-10-02T19:05:33.722Z,100726.67
2022-10-02T19:08:19.511Z,100726.42
2022-10-02T19:10:48.401Z,100725.52
2022-10-02T19:13:38.902Z,100728.50
2022-10-02T19:16:17.854Z,100723.02
2022-10-02T19:18:46.514Z,100720.41
2022-10-02T19:21:19.500Z,100722.99
2022-10-02T19:23:47.594Z,100725.70
2022-10-02T19:26:25.280Z,100724.34
2022-10-02T19:28:59.380Z,100720.14
2022-10-02T19:31:29.911Z,100714.46
2022-10-02T19:34:04.241Z,100704.84
2022-10-02T19:36:38.387Z,100706.29
2022-10-02T19:39:13.686Z,100709.91
2022-10-02T19:41:43.707Z,100713.65
2022-10-02T19:44:27.490Z,100714.11
2022-10-02T19:46:58.284Z,100718.13
2022-10-02T19:49:30.809Z,100718.59
2022-10-02T19:51:59.038Z,100718.82
2022-10-02T19:54:37.554Z,100720.00
2022-10-02T19:57:15.098Z,100719.81
2022-10-02T19:59:55.920Z,100719.85
2022-10-02T20:02:35.816Z,100727.44
2022-10-02T20:05:07.139Z,100731.17
2022-10-02T20:07:37.570Z,100730.95
2022-10-02T20:10:31.344Z,100728.56
2022-10-02T20:13:17.924Z,100731.14
2022-10-02T20:16:22.173Z,100726.09
2022-10-02T20:18:51.651Z,100728.86
2022-10-02T20:21:32.009Z,100727.17
2022-10-02T20:24:01.619Z,100720.27
2022-10-02T20:26:30.722Z,100717.96
2022-10-02T20:29:06.264Z,100715.95
2022-10-02T20:32:02.357Z,100715.06
2022-10-02T20:34:39.580Z,100706.60
2022-10-02T20:37:17.900Z,100715.85
2022-10-02T20:39:57.669Z,100710.02
2022-10-02T20:42:34.333Z,100711.16
2022-10-02T20:45:02.536Z,100709.09
2022-10-02T20:47:59.741Z,100707.81
2022-10-02T20:50:40.781Z,100712.53
2022-10-02T20:53:46.576Z,100714.65
2022-10-02T20:56:45.470Z,100718.71
2022-10-02T20:59:51.841Z,100726.22
2022-10-02T21:02:35.518Z,100730.36
2022-10-02T21:05:31.352Z,100732.20
2022-10-02T21:08:18.214Z,100728.54
2022-10-02T21:11:04.205Z,100734.49
2022-10-02T21:14:29.112Z,100731.44
2022-10-02T21:17:14.426Z,100731.63
2022-10-02T21:20:00.889Z,100725.19
2022-10-02T21:22:56.818Z,100728.13
2022-10-02T21:25:47.927Z,100727.43
2022-10-02T21:28:24.740Z,100726.55
2022-10-02T21:31:05.866Z,100729.46
2022-10-02T21:34:01.910Z,100725.27
2022-10-02T21:36:37.355Z,100725.17
2022-10-02T21:39:24.375Z,100727.77
2022-10-02T21:42:27.158Z,100727.45
2022-10-02T21:45:03.623Z,100728.55
2022-10-02T21:48:09.487Z,100728.13
2022-10-02T21:50:46.060Z,100733.79
2022-10-02T21:53:58.881Z,100735.96
2022-10-02T21:56:43.233Z,100735.03
2022-10-02T21:59:40.694Z,100739.09
2022-10-02T22:02:36.621Z,100734.11
2022-10-02T22:05:16.979Z,100730.91
2022-10-02T22:07:55.154Z,100731.23
2022-10-02T22:10:35.347Z,100730.39
2022-10-02T22:13:22.359Z,100730.08
2022-10-02T22:16:12.062Z,100730.27
2022-10-02T22:19:07.457Z,100738.93
2022-10-02T22:21:41.603Z,100730.50
2022-10-02T22:24:48.145Z,100728.09
2022-10-02T22:27:40.793Z,100730.20
2022-10-02T22:30:22.144Z,100723.33
2022-10-02T22:33:11.142Z,100725.08
2022-10-02T22:35:51.498Z,100728.61
2022-10-02T22:38:26.401Z,100727.55
2022-10-02T22:41:19.386Z,100725.61
2022-10-02T22:43:47.456Z,100727.39
2022-10-02T22:46:40.917Z,100725.89
2022-10-02T22:49:24.870Z,100726.95
2022-10-02T22:52:11.889Z,100729.16
2022-10-02T22:54:56.752Z,100734.17
2022-10-02T22:57:59.141Z,100735.33
2022-10-02T23:00:32.629Z,100739.29
2022-10-02T23:03:26.059Z,100734.15
2022-10-02T23:06:04.613Z,100730.20
2022-10-02T23:09:08.774Z,100729.83
2022-10-02T23:12:00.166Z,100731.99
2022-10-02T23:14:46.144Z,100731.93
2022-10-02T23:17:49.235Z,100735.66
2022-10-02T23:20:27.030Z,100737.88
2022-10-02T23:23:02.090Z,100737.40
2022-10-02T23:25:42.854Z,100735.70
2022-10-02T23:28:19.971Z,100730.08
2022-10-02T23:31:06.506Z,100726.66
2022-10-02T23:33:58.959Z,100724.77
2022-10-02T23:36:54.290Z,100722.09
2022-10-02T23:39:49.803Z,100722.49
2022-10-02T23:42:26.828Z,100730.26
2022-10-02T23:45:18.054Z,100734.14
2022-10-02T23:48:21.807Z,100736.73
2022-10-02T23:50:59.504Z,100732.92
2022-10-02T23:53:43.942Z,100739.83
2022-10-02T23:56:36.304Z,100739.84
2022-10-02T23:59:19.531Z,100737.30
